createdAt,value
2019-03-01T00:00:20.872Z,3.15
2019-03-01T00:02:48.154Z,8.40
2019-03-01T00:05:44.465Z,10.30
2019-03-01T00:08:17.792Z,8.08
2019-03-01T00:11:35.742Z,4.78
2019-03-01T00:14:33.874Z,3.37
2019-03-01T00:17:30.354Z,4.05
2019-03-01T00:20:41.311Z,5.03
2019-03-01T00:23:58.407Z,7.03
2019-03-01T00:27:00.205Z,9.33
2019-03-01T00:30:22.023Z,5.40
2019-03-01T00:32:58.593Z,5.10
2019-03-01T00:36:10.718Z,4.53
2019-03-01T00:38:58.419Z,3.65
2019-03-01T00:41:54.557Z,2.85
2019-03-01T00:44:40.313Z,3.47
2019-03-01T00:47:07.726Z,3.42
2019-03-01T00:49:35.455Z,4.72
2019-03-01T00:52:02.995Z,4.75
2019-03-01T00:54:30.412Z,4.00
2019-03-01T00:56:57.838Z,7.58
2019-03-01T00:59:25.129Z,7.12
2019-03-01T01:01:52.607Z,6.90
2019-03-01T01:04:20.001Z,6.65
2019-03-01T01:06:47.334Z,5.22
2019-03-01T01:09:14.942Z,4.50
2019-03-01T01:11:42.676Z,5.33
2019-03-01T01:14:10.098Z,4.95
2019-03-01T01:16:37.440Z,4.17
2019-03-01T01:19:05.043Z,4.03
2019-03-01T01:21:32.343Z,3.70
2019-03-01T01:23:59.767Z,3.60
2019-03-01T01:26:27.427Z,4.58
2019-03-01T01:28:54.849Z,4.70
2019-03-01T01:31:22.140Z,4.67
2019-03-01T01:33:49.526Z,4.70
2019-03-01T01:36:16.941Z,4.55
2019-03-01T01:38:44.340Z,4.30
2019-03-01T01:41:11.766Z,4.42
2019-03-01T01:43:39.203Z,4.00
2019-03-01T01:46:06.939Z,4.65
2019-03-01T01:48:34.340Z,4.45
2019-03-01T01:51:01.648Z,4.78
2019-03-01T01:53:29.082Z,3.90
2019-03-01T01:55:56.483Z,4.90
2019-03-01T01:58:23.893Z,6.80
2019-03-01T02:00:51.223Z,10.60
2019-03-01T02:03:18.549Z,8.25
2019-03-01T02:05:46.029Z,6.75
2019-03-01T02:08:13.443Z,7.90
2019-03-01T02:10:40.915Z,9.55
2019-03-01T02:13:08.331Z,7.72
2019-03-01T02:15:35.709Z,6.40
2019-03-01T02:18:03.594Z,6.00
2019-03-01T02:20:30.903Z,3.98
2019-03-01T02:22:58.275Z,3.42
2019-03-01T02:25:25.559Z,4.75
2019-03-01T02:27:52.898Z,3.42
2019-03-01T02:30:22.584Z,5.12
2019-03-01T02:32:50.317Z,6.15
2019-03-01T02:35:19.837Z,9.03
2019-03-01T02:37:47.238Z,7.35
2019-03-01T02:40:15.324Z,4.62
2019-03-01T02:42:42.723Z,4.70
2019-03-01T02:45:12.025Z,5.67
2019-03-01T02:47:39.392Z,7.83
2019-03-01T02:50:07.555Z,9.90
2019-03-01T02:52:34.916Z,10.72
2019-03-01T02:55:02.345Z,8.93
2019-03-01T02:57:29.646Z,6.58
2019-03-01T02:59:57.351Z,5.20
2019-03-01T03:02:24.752Z,4.15
2019-03-01T03:04:52.057Z,3.92
2019-03-01T03:07:27.599Z,3.85
2019-03-01T03:09:55.069Z,4.00
2019-03-01T03:12:22.461Z,4.20
2019-03-01T03:14:49.905Z,4.47
2019-03-01T03:17:17.297Z,3.83
2019-03-01T03:19:44.720Z,3.90
2019-03-01T03:22:12.114Z,3.72
2019-03-01T03:24:39.538Z,5.60
2019-03-01T03:27:06.925Z,3.27
2019-03-01T03:29:34.390Z,4.15
2019-03-01T03:32:01.770Z,3.60
2019-03-01T03:34:29.462Z,4.05
2019-03-01T03:36:56.777Z,4.20
2019-03-01T03:39:24.074Z,3.40
2019-03-01T03:41:51.490Z,3.72
2019-03-01T03:44:19.010Z,3.67
2019-03-01T03:46:46.434Z,3.52
2019-03-01T03:49:13.878Z,3.50
2019-03-01T03:51:41.276Z,3.60
2019-03-01T03:54:08.659Z,3.67
2019-03-01T03:56:36.078Z,4.08
2019-03-01T03:59:03.748Z,3.20
2019-03-01T04:01:31.057Z,3.60
2019-03-01T04:03:58.354Z,3.65
2019-03-01T04:06:26.406Z,3.27
2019-03-01T04:08:53.833Z,3.52
2019-03-01T04:11:21.235Z,2.90
2019-03-01T04:13:48.551Z,3.45
2019-03-01T04:16:15.944Z,4.35
2019-03-01T04:18:43.346Z,3.77
2019-03-01T04:21:10.816Z,3.87
2019-03-01T04:23:38.198Z,4.78
2019-03-01T04:26:05.578Z,4.05
2019-03-01T04:28:33.034Z,3.77
2019-03-01T04:31:02.704Z,4.25
2019-03-01T04:33:30.536Z,4.03
2019-03-01T04:35:57.937Z,3.98
2019-03-01T04:38:25.292Z,4.15
2019-03-01T04:40:52.710Z,5.60
2019-03-01T04:43:20.000Z,3.92
2019-03-01T04:45:47.703Z,3.70
2019-03-01T04:48:15.281Z,3.10
2019-03-01T04:50:42.911Z,3.92
2019-03-01T04:53:10.310Z,3.52
2019-03-01T04:55:37.710Z,4.15
2019-03-01T04:58:05.003Z,4.53
2019-03-01T05:00:32.420Z,3.95
2019-03-01T05:03:00.196Z,4.20
2019-03-01T05:05:27.577Z,3.62
2019-03-01T05:07:56.018Z,3.60
2019-03-01T05:10:23.412Z,3.80
2019-03-01T05:12:53.802Z,3.30
2019-03-01T05:15:22.391Z,4.25
2019-03-01T05:17:52.568Z,6.40
2019-03-01T05:20:20.013Z,8.85
2019-03-01T05:22:47.770Z,16.42
2019-03-01T05:25:15.400Z,18.42
2019-03-01T05:27:42.790Z,15.45
2019-03-01T05:30:11.301Z,9.18
2019-03-01T05:32:39.106Z,5.10
2019-03-01T05:35:06.823Z,3.98
2019-03-01T05:37:34.241Z,3.90
2019-03-01T05:40:04.383Z,3.60
2019-03-01T05:42:31.950Z,5.15
2019-03-01T05:45:00.568Z,4.10
2019-03-01T05:47:28.379Z,4.67
2019-03-01T05:49:55.683Z,3.40
2019-03-01T05:52:23.071Z,3.70
2019-03-01T05:54:50.458Z,2.80
2019-03-01T05:57:17.870Z,3.30
2019-03-01T05:59:45.286Z,3.20
2019-03-01T06:02:38.152Z,2.80
2019-03-01T06:05:15.028Z,3.25
2019-03-01T06:08:23.840Z,3.45
2019-03-01T06:11:01.635Z,2.83
2019-03-01T06:13:54.540Z,3.62
2019-03-01T06:16:45.625Z,7.17
2019-03-01T06:19:33.538Z,5.45
2019-03-01T06:22:38.434Z,6.05
2019-03-01T06:25:22.433Z,4.22
2019-03-01T06:28:05.969Z,4.60
2019-03-01T06:31:27.526Z,8.28
2019-03-01T06:34:23.357Z,3.60
2019-03-01T06:37:20.827Z,3.08
2019-03-01T06:40:52.241Z,2.72
2019-03-01T06:44:03.098Z,2.65
2019-03-01T06:47:36.479Z,3.12
2019-03-01T06:50:24.538Z,22.10
2019-03-01T06:52:51.872Z,75.80
2019-03-01T06:55:52.719Z,141.30
2019-03-01T06:58:24.883Z,74.07
2019-03-01T07:00:56.703Z,53.92
2019-03-01T07:03:24.339Z,46.73
2019-03-01T07:05:52.067Z,36.83
2019-03-01T07:08:19.460Z,61.60
2019-03-01T07:10:46.844Z,27.10
2019-03-01T07:13:14.252Z,7.83
2019-03-01T07:15:41.655Z,3.37
2019-03-01T07:18:09.058Z,2.95
2019-03-01T07:20:36.502Z,2.83
2019-03-01T07:23:03.901Z,3.87
2019-03-01T07:25:31.228Z,3.50
2019-03-01T07:27:58.910Z,2.30
2019-03-01T07:30:26.310Z,2.65
2019-03-01T07:32:53.686Z,2.00
2019-03-01T07:35:21.339Z,2.33
2019-03-01T07:37:48.732Z,2.10
2019-03-01T07:40:16.123Z,2.75
2019-03-01T07:42:43.845Z,2.60
2019-03-01T07:45:11.265Z,3.35
2019-03-01T07:47:38.692Z,4.00
2019-03-01T07:50:06.823Z,3.10
2019-03-01T07:52:34.217Z,3.65
2019-03-01T07:55:01.529Z,3.35
2019-03-01T07:57:31.469Z,2.70
2019-03-01T07:59:58.457Z,2.87
2019-03-01T08:02:25.877Z,2.45
2019-03-01T08:04:53.519Z,2.30
2019-03-01T08:07:23.619Z,4.40
2019-03-01T08:09:50.172Z,3.80
2019-03-01T08:12:17.630Z,3.05
2019-03-01T08:14:45.049Z,2.25
2019-03-01T08:17:12.487Z,2.45
2019-03-01T08:19:39.888Z,2.67
2019-03-01T08:22:07.197Z,1.95
2019-03-01T08:24:34.624Z,2.30
2019-03-01T08:27:01.946Z,3.60
2019-03-01T08:29:30.627Z,2.30
2019-03-01T08:31:58.795Z,1.60
2019-03-01T08:34:26.238Z,2.22
2019-03-01T08:36:53.547Z,1.87
2019-03-01T08:39:21.000Z,2.02
2019-03-01T08:41:48.395Z,1.70
2019-03-01T08:44:19.261Z,0.90
2019-03-01T08:46:46.505Z,1.82
2019-03-01T08:49:14.012Z,1.95
2019-03-01T08:51:41.334Z,2.37
2019-03-01T08:54:08.683Z,3.92
2019-03-01T08:56:36.077Z,2.33
2019-03-01T08:59:03.517Z,1.40
2019-03-01T09:01:31.791Z,2.90
2019-03-01T09:04:02.449Z,2.55
2019-03-01T09:06:29.841Z,2.33
2019-03-01T09:08:57.536Z,1.80
2019-03-01T09:11:25.026Z,2.42
2019-03-01T09:13:52.469Z,1.70
2019-03-01T09:16:19.909Z,1.80
2019-03-01T09:18:50.126Z,1.85
2019-03-01T09:21:17.268Z,1.40
2019-03-01T09:23:47.991Z,1.55
2019-03-01T09:26:16.717Z,1.85
2019-03-01T09:28:43.545Z,1.60
2019-03-01T09:31:10.999Z,2.10
2019-03-01T09:33:38.422Z,1.85
2019-03-01T09:36:14.474Z,1.80
2019-03-01T09:38:42.848Z,1.57
2019-03-01T09:41:11.258Z,1.35
2019-03-01T09:43:38.681Z,1.60
2019-03-01T09:46:06.001Z,1.70
2019-03-01T09:48:33.762Z,2.05
2019-03-01T09:51:01.237Z,1.40
2019-03-01T09:53:30.672Z,1.42
2019-03-01T09:56:00.007Z,1.40
2019-03-01T09:58:27.080Z,1.50
2019-03-01T10:01:04.309Z,1.45
2019-03-01T10:03:31.746Z,2.70
2019-03-01T10:05:59.052Z,3.17
2019-03-01T10:08:26.519Z,2.20
2019-03-01T10:10:53.985Z,2.80
2019-03-01T10:13:21.434Z,2.58
2019-03-01T10:15:48.855Z,3.40
2019-03-01T10:18:16.359Z,3.42
2019-03-01T10:20:43.910Z,2.83
2019-03-01T10:23:11.367Z,5.30
2019-03-01T10:25:38.790Z,5.00
2019-03-01T10:28:06.220Z,3.02
2019-03-01T10:30:33.851Z,4.20
2019-03-01T10:33:01.334Z,3.05
2019-03-01T10:35:28.778Z,2.35
2019-03-01T10:37:56.204Z,2.10
2019-03-01T10:40:23.648Z,1.80
2019-03-01T10:42:51.085Z,3.35
2019-03-01T10:45:20.937Z,2.50
2019-03-01T10:47:48.380Z,2.22
2019-03-01T10:50:15.757Z,1.90
2019-03-01T10:52:43.175Z,1.60
2019-03-01T10:55:12.478Z,2.15
2019-03-01T10:57:39.886Z,1.32
2019-03-01T11:00:20.949Z,2.15
2019-03-01T11:02:48.677Z,1.90
2019-03-01T11:05:16.097Z,2.08
2019-03-01T11:07:44.006Z,3.15
2019-03-01T11:10:14.073Z,3.60
2019-03-01T11:12:41.495Z,2.37
2019-03-01T11:15:09.959Z,1.72
2019-03-01T11:17:37.393Z,1.52
2019-03-01T11:20:04.943Z,1.60
2019-03-01T11:22:32.416Z,2.40
2019-03-01T11:24:59.866Z,1.30
2019-03-01T11:27:27.207Z,2.40
2019-03-01T11:29:54.701Z,2.65
2019-03-01T11:32:22.113Z,2.60
2019-03-01T11:34:49.548Z,2.25
2019-03-01T11:37:17.074Z,2.25
2019-03-01T11:39:44.480Z,2.92
2019-03-01T11:42:11.893Z,2.92
2019-03-01T11:44:39.352Z,4.05
2019-03-01T11:47:06.757Z,2.77
2019-03-01T11:49:34.206Z,1.57
2019-03-01T11:52:01.539Z,1.80
2019-03-01T11:54:29.001Z,1.50
2019-03-01T11:56:56.431Z,1.40
2019-03-01T11:59:23.880Z,1.20
2019-03-01T12:01:51.294Z,1.00
2019-03-01T12:04:18.773Z,1.35
2019-03-01T12:06:46.226Z,1.20
2019-03-01T12:09:13.998Z,0.90
2019-03-01T12:11:41.448Z,0.95
2019-03-01T12:14:08.911Z,0.90
2019-03-01T12:16:36.326Z,1.05
2019-03-01T12:19:04.066Z,1.12
2019-03-01T12:21:31.477Z,1.10
2019-03-01T12:23:58.870Z,1.00
2019-03-01T12:26:26.207Z,1.20
2019-03-01T12:28:53.615Z,1.25
2019-03-01T12:31:21.076Z,1.20
2019-03-01T12:33:48.519Z,1.50
2019-03-01T12:36:15.939Z,1.15
2019-03-01T12:38:43.492Z,1.40
2019-03-01T12:41:11.791Z,1.15
2019-03-01T12:43:39.202Z,1.20
2019-03-01T12:46:06.609Z,0.80
2019-03-01T12:48:34.059Z,1.07
2019-03-01T12:51:01.859Z,1.20
2019-03-01T12:53:29.385Z,0.90
2019-03-01T12:55:56.843Z,1.10
2019-03-01T12:58:24.290Z,1.10
2019-03-01T13:00:52.349Z,1.32
2019-03-01T13:03:19.777Z,1.20
2019-03-01T13:05:47.182Z,1.10
2019-03-01T13:08:15.784Z,1.22
2019-03-01T13:10:43.870Z,0.70
2019-03-01T13:13:11.334Z,0.62
2019-03-01T13:15:38.760Z,0.85
2019-03-01T13:18:06.226Z,0.93
2019-03-01T13:20:36.653Z,1.70
2019-03-01T13:23:04.997Z,0.70
2019-03-01T13:25:32.247Z,0.68
2019-03-01T13:27:59.730Z,0.90
2019-03-01T13:30:27.153Z,0.50
2019-03-01T13:32:55.174Z,0.65
2019-03-01T13:35:26.108Z,0.90
2019-03-01T13:37:54.890Z,1.00
2019-03-01T13:40:24.550Z,0.70
2019-03-01T13:42:51.756Z,0.60
2019-03-01T13:45:19.642Z,0.80
2019-03-01T13:47:47.096Z,0.70
2019-03-01T13:50:15.389Z,2.08
2019-03-01T13:52:42.937Z,1.10
2019-03-01T13:55:10.347Z,1.02
2019-03-01T13:57:37.804Z,1.00
2019-03-01T14:00:06.419Z,0.90
2019-03-01T14:02:33.883Z,1.20
2019-03-01T14:05:01.354Z,1.30
2019-03-01T14:07:29.118Z,1.25
2019-03-01T14:09:56.584Z,1.20
2019-03-01T14:12:24.350Z,1.00
2019-03-01T14:14:52.183Z,1.20
2019-03-01T14:17:21.119Z,1.27
2019-03-01T14:19:49.067Z,1.12
2019-03-01T14:22:16.541Z,1.20
2019-03-01T14:24:44.015Z,1.72
2019-03-01T14:27:11.513Z,1.30
2019-03-01T14:29:38.962Z,1.60
2019-03-01T14:32:06.364Z,1.40
2019-03-01T14:34:34.097Z,1.30
2019-03-01T14:37:01.587Z,1.35
2019-03-01T14:39:29.109Z,1.15
2019-03-01T14:41:56.545Z,1.00
2019-03-01T14:44:23.909Z,1.30
2019-03-01T14:46:52.889Z,0.80
2019-03-01T14:49:21.875Z,1.10
2019-03-01T14:51:50.405Z,1.12
2019-03-01T14:54:18.084Z,1.65
2019-03-01T14:56:52.447Z,1.00
2019-03-01T14:59:38.025Z,1.30
2019-03-01T15:02:39.800Z,1.15
2019-03-01T15:05:06.457Z,1.50
2019-03-01T15:07:36.300Z,1.17
2019-03-01T15:10:04.756Z,1.10
2019-03-01T15:12:32.383Z,1.15
2019-03-01T15:15:26.423Z,1.60
2019-03-01T15:17:57.013Z,1.60
2019-03-01T15:20:24.596Z,1.67
2019-03-01T15:22:52.083Z,1.70
2019-03-01T15:25:19.539Z,1.92
2019-03-01T15:27:47.420Z,1.95
2019-03-01T15:30:14.998Z,2.30
2019-03-01T15:32:42.479Z,2.50
2019-03-01T15:35:10.052Z,3.42
2019-03-01T15:37:37.555Z,3.22
2019-03-01T15:40:07.271Z,3.27
2019-03-01T15:42:34.538Z,2.35
2019-03-01T15:45:05.049Z,2.75
2019-03-01T15:47:31.214Z,2.00
2019-03-01T15:49:58.725Z,2.08
2019-03-01T15:52:26.189Z,2.40
2019-03-01T15:54:53.636Z,2.87
2019-03-01T15:57:30.406Z,2.30
2019-03-01T15:59:57.840Z,2.45
2019-03-01T16:02:25.644Z,3.12
2019-03-01T16:04:53.128Z,3.20
2019-03-01T16:07:20.839Z,3.10
2019-03-01T16:09:48.327Z,2.75
2019-03-01T16:12:15.728Z,2.72
2019-03-01T16:14:44.123Z,2.45
2019-03-01T16:17:11.904Z,2.17
2019-03-01T16:19:39.395Z,2.70
2019-03-01T16:22:07.190Z,2.62
2019-03-01T16:24:34.638Z,3.40
2019-03-01T16:27:02.010Z,5.08
2019-03-01T16:29:29.432Z,4.17
2019-03-01T16:31:56.887Z,4.87
2019-03-01T16:34:24.227Z,5.03
2019-03-01T16:36:54.080Z,4.50
2019-03-01T16:39:23.820Z,3.60
2019-03-01T16:41:51.908Z,3.60
2019-03-01T16:44:19.565Z,4.78
2019-03-01T16:46:47.108Z,3.70
2019-03-01T16:49:14.533Z,3.27
2019-03-01T16:51:42.198Z,4.15
2019-03-01T16:54:15.287Z,3.75
2019-03-01T16:56:39.443Z,5.33
2019-03-01T16:59:07.288Z,4.75
2019-03-01T17:01:34.912Z,4.05
2019-03-01T17:04:02.442Z,4.87
2019-03-01T17:06:29.887Z,4.60
2019-03-01T17:08:57.347Z,4.17
2019-03-01T17:11:24.819Z,6.05
2019-03-01T17:13:52.584Z,5.95
2019-03-01T17:16:20.497Z,5.55
2019-03-01T17:18:49.448Z,5.70
2019-03-01T17:21:17.183Z,5.30
2019-03-01T17:23:44.688Z,6.20
2019-03-01T17:26:12.122Z,7.95
2019-03-01T17:28:39.659Z,7.25
2019-03-01T17:31:07.126Z,10.20
2019-03-01T17:33:34.531Z,9.78
2019-03-01T17:36:01.989Z,9.55
2019-03-01T17:38:29.437Z,10.05
2019-03-01T17:40:56.855Z,8.30
2019-03-01T17:43:25.934Z,6.55
2019-03-01T17:45:54.389Z,6.25
2019-03-01T17:48:23.198Z,5.85
2019-03-01T17:50:50.554Z,6.85
2019-03-01T17:53:18.067Z,5.45
2019-03-01T17:55:45.595Z,5.35
2019-03-01T17:58:15.189Z,5.42
2019-03-01T18:00:42.996Z,5.70
2019-03-01T18:03:10.434Z,6.12
2019-03-01T18:05:40.614Z,6.03
2019-03-01T18:08:07.465Z,7.20
2019-03-01T18:10:34.915Z,7.12
2019-03-01T18:13:02.400Z,6.50
2019-03-01T18:15:29.867Z,7.70
2019-03-01T18:17:57.336Z,6.42
2019-03-01T18:20:26.619Z,7.65
2019-03-01T18:22:54.520Z,8.85
2019-03-01T18:25:26.122Z,9.18
2019-03-01T18:27:53.029Z,7.78
2019-03-01T18:30:21.453Z,7.37
2019-03-01T18:32:49.048Z,7.33
2019-03-01T18:35:16.517Z,6.37
2019-03-01T18:37:44.028Z,6.62
2019-03-01T18:40:13.454Z,6.95
2019-03-01T18:42:40.967Z,7.03
2019-03-01T18:45:11.738Z,6.42
2019-03-01T18:47:39.225Z,7.65
2019-03-01T18:50:14.219Z,8.53
2019-03-01T18:52:41.745Z,8.05
2019-03-01T18:55:09.393Z,11.12
2019-03-01T18:57:38.620Z,7.53
2019-03-01T19:00:17.648Z,8.95
2019-03-01T19:02:45.896Z,7.97
2019-03-01T19:05:13.456Z,7.55
2019-03-01T19:07:41.094Z,9.10
2019-03-01T19:10:09.259Z,8.95
2019-03-01T19:12:36.762Z,9.20
2019-03-01T19:15:04.854Z,8.80
2019-03-01T19:17:32.420Z,9.00
2019-03-01T19:20:01.983Z,8.98
2019-03-01T19:22:29.692Z,9.38
2019-03-01T19:24:57.411Z,10.55
2019-03-01T19:27:25.067Z,10.75
2019-03-01T19:29:52.794Z,11.30
2019-03-01T19:32:23.579Z,11.85
2019-03-01T19:34:52.781Z,11.35
2019-03-01T19:37:20.155Z,12.85
2019-03-01T19:39:47.695Z,11.95
2019-03-01T19:42:15.258Z,12.60
2019-03-01T19:44:43.064Z,14.23
2019-03-01T19:47:10.757Z,14.38
2019-03-01T19:49:40.257Z,15.30
2019-03-01T19:52:09.347Z,14.28
2019-03-01T19:54:37.565Z,14.38
2019-03-01T19:57:05.174Z,15.75
2019-03-01T19:59:33.119Z,19.00
2019-03-01T20:02:00.733Z,18.23
2019-03-01T20:04:28.337Z,19.05
2019-03-01T20:06:56.561Z,13.25
2019-03-01T20:09:25.177Z,12.35
2019-03-01T20:11:55.464Z,13.60
2019-03-01T20:14:23.331Z,12.80
2019-03-01T20:16:50.995Z,14.07
2019-03-01T20:19:20.884Z,18.85
2019-03-01T20:21:48.129Z,18.80
2019-03-01T20:24:15.710Z,15.85
2019-03-01T20:26:43.293Z,15.93
2019-03-01T20:29:11.485Z,13.85
2019-03-01T20:31:40.489Z,15.38
2019-03-01T20:34:08.448Z,16.42
2019-03-01T20:36:36.827Z,16.73
2019-03-01T20:39:04.772Z,18.07
2019-03-01T20:41:32.302Z,17.17
2019-03-01T20:44:01.110Z,20.40
2019-03-01T20:46:28.711Z,19.95
2019-03-01T20:49:00.643Z,20.50
2019-03-01T20:51:28.021Z,18.60
2019-03-01T20:53:56.305Z,19.27
2019-03-01T20:56:24.079Z,15.95
2019-03-01T20:58:51.757Z,16.62
2019-03-01T21:01:19.378Z,16.82
2019-03-01T21:03:47.233Z,16.77
2019-03-01T21:06:15.450Z,15.50
2019-03-01T21:08:43.159Z,13.30
2019-03-01T21:11:10.702Z,15.48
2019-03-01T21:13:38.253Z,16.75
2019-03-01T21:16:06.166Z,15.35
2019-03-01T21:18:34.182Z,16.67
2019-03-01T21:21:02.885Z,17.20
2019-03-01T21:23:30.401Z,16.90
2019-03-01T21:25:58.039Z,19.27
2019-03-01T21:28:25.906Z,18.40
2019-03-01T21:30:55.657Z,17.57
2019-03-01T21:33:24.061Z,19.27
2019-03-01T21:35:53.161Z,19.37
2019-03-01T21:38:20.816Z,22.25
2019-03-01T21:40:48.279Z,21.57
2019-03-01T21:43:15.945Z,18.95
2019-03-01T21:45:43.851Z,18.45
2019-03-01T21:48:11.453Z,17.05
2019-03-01T21:50:42.429Z,16.73
2019-03-01T21:53:08.653Z,19.12
2019-03-01T21:55:36.114Z,20.32
2019-03-01T21:58:06.472Z,20.85
2019-03-01T22:00:34.740Z,25.00
2019-03-01T22:03:02.251Z,25.65
2019-03-01T22:05:29.700Z,23.18
2019-03-01T22:07:57.155Z,23.80
2019-03-01T22:10:24.676Z,20.23
2019-03-01T22:12:52.121Z,26.23
2019-03-01T22:15:21.559Z,20.20
2019-03-01T22:17:50.314Z,22.42
2019-03-01T22:20:18.509Z,21.07
2019-03-01T22:22:45.988Z,24.98
2019-03-01T22:25:13.597Z,28.92
2019-03-01T22:27:42.198Z,29.07
2019-03-01T22:30:12.250Z,23.38
2019-03-01T22:32:42.317Z,24.77
2019-03-01T22:35:09.605Z,24.25
2019-03-01T22:37:37.103Z,21.77
2019-03-01T22:40:05.798Z,21.05
2019-03-01T22:42:33.206Z,17.80
2019-03-01T22:45:00.628Z,18.10
2019-03-01T22:47:28.129Z,18.92
2019-03-01T22:49:55.970Z,18.65
2019-03-01T22:52:26.706Z,17.62
2019-03-01T22:54:52.712Z,20.43
2019-03-01T23:02:44.378Z,25.23
2019-03-01T23:12:30.699Z,25.50
2019-03-01T23:22:12.640Z,27.98
2019-03-01T23:29:08.912Z,27.55
